sensor_id;sensor_type;location;lat;lon;timestamp;P1;durP1;ratioP1;P2;durP2;ratioP2
13580;SDS011;6861;46.170;7.222;2023-03-23T00:02:19;4.85;;;1.40;;
13580;SDS011;6861;46.170;7.222;2023-03-23T00:04:48;3.63;;;1.20;;
13580;SDS011;6861;46.170;7.222;2023-03-23T00:07:15;4.15;;;1.20;;
13580;SDS011;6861;46.170;7.222;2023-03-23T00:09:46;4.90;;;1.20;;
13580;SDS011;6861;46.170;7.222;2023-03-23T00:12:19;3.42;;;1.30;;
13580;SDS011;6861;46.170;7.222;2023-03-23T00:14:58;2.75;;;1.20;;
13580;SDS011;6861;46.170;7.222;2023-03-23T00:17:25;2.38;;;1.40;;
13580;SDS011;6861;46.170;7.222;2023-03-23T00:19:52;4.20;;;1.55;;
13580;SDS011;6861;46.170;7.222;2023-03-23T00:22:20;2.05;;;1.25;;
13580;SDS011;6861;46.170;7.222;2023-03-23T00:24:50;2.55;;;1.10;;
13580;SDS011;6861;46.170;7.222;2023-03-23T00:27:17;2.05;;;1.05;;
13580;SDS011;6861;46.170;7.222;2023-03-23T00:29:47;1.35;;;1.00;;
13580;SDS011;6861;46.170;7.222;2023-03-23T00:32:18;2.70;;;1.30;;
13580;SDS011;6861;46.170;7.222;2023-03-23T00:34:46;2.65;;;1.30;;
13580;SDS011;6861;46.170;7.222;2023-03-23T00:37:14;2.00;;;1.10;;
13580;SDS011;6861;46.170;7.222;2023-03-23T00:39:42;3.03;;;0.98;;
13580;SDS011;6861;46.170;7.222;2023-03-23T00:42:12;3.05;;;0.90;;
13580;SDS011;6861;46.170;7.222;2023-03-23T00:44:41;2.10;;;0.93;;
13580;SDS011;6861;46.170;7.222;2023-03-23T00:47:08;3.22;;;1.00;;
13580;SDS011;6861;46.170;7.222;2023-03-23T00:49:36;2.08;;;1.08;;
13580;SDS011;6861;46.170;7.222;2023-03-23T00:52:04;4.85;;;1.30;;
13580;SDS011;6861;46.170;7.222;2023-03-23T00:54:32;4.32;;;1.30;;
13580;SDS011;6861;46.170;7.222;2023-03-23T00:56:59;3.15;;;1.23;;
13580;SDS011;6861;46.170;7.222;2023-03-23T00:59:26;4.32;;;1.10;;
13580;SDS011;6861;46.170;7.222;2023-03-23T01:01:55;1.52;;;1.20;;
13580;SDS011;6861;46.170;7.222;2023-03-23T01:04:22;4.00;;;1.02;;
13580;SDS011;6861;46.170;7.222;2023-03-23T01:06:49;2.58;;;1.00;;
13580;SDS011;6861;46.170;7.222;2023-03-23T01:09:17;2.03;;;0.90;;
13580;SDS011;6861;46.170;7.222;2023-03-23T01:11:46;2.80;;;1.23;;
13580;SDS011;6861;46.170;7.222;2023-03-23T01:14:15;2.28;;;1.20;;
13580;SDS011;6861;46.170;7.222;2023-03-23T01:16:43;2.17;;;1.10;;
13580;SDS011;6861;46.170;7.222;2023-03-23T01:19:12;2.63;;;1.10;;
13580;SDS011;6861;46.170;7.222;2023-03-23T01:21:40;2.28;;;1.10;;
13580;SDS011;6861;46.170;7.222;2023-03-23T01:24:07;1.40;;;1.10;;
13580;SDS011;6861;46.170;7.222;2023-03-23T01:26:34;1.40;;;1.00;;
13580;SDS011;6861;46.170;7.222;2023-03-23T01:29:03;1.55;;;0.95;;
13580;SDS011;6861;46.170;7.222;2023-03-23T01:31:30;2.28;;;1.10;;
13580;SDS011;6861;46.170;7.222;2023-03-23T01:33:57;1.95;;;1.30;;
13580;SDS011;6861;46.170;7.222;2023-03-23T01:36:26;3.83;;;1.15;;
13580;SDS011;6861;46.170;7.222;2023-03-23T01:38:58;2.47;;;1.20;;
13580;SDS011;6861;46.170;7.222;2023-03-23T01:41:26;3.20;;;1.10;;
13580;SDS011;6861;46.170;7.222;2023-03-23T01:43:53;1.60;;;1.10;;
13580;SDS011;6861;46.170;7.222;2023-03-23T01:46:23;2.35;;;1.08;;
13580;SDS011;6861;46.170;7.222;2023-03-23T01:48:51;4.20;;;1.15;;
13580;SDS011;6861;46.170;7.222;2023-03-23T01:51:19;2.25;;;1.13;;
13580;SDS011;6861;46.170;7.222;2023-03-23T01:53:50;2.20;;;1.20;;
13580;SDS011;6861;46.170;7.222;2023-03-23T01:56:22;1.80;;;1.30;;
13580;SDS011;6861;46.170;7.222;2023-03-23T01:58:51;1.92;;;1.20;;
13580;SDS011;6861;46.170;7.222;2023-03-23T02:01:20;1.75;;;1.13;;
13580;SDS011;6861;46.170;7.222;2023-03-23T02:03:50;2.05;;;1.20;;
13580;SDS011;6861;46.170;7.222;2023-03-23T02:06:19;1.85;;;1.17;;
13580;SDS011;6861;46.170;7.222;2023-03-23T02:08:46;1.70;;;1.20;;
13580;SDS011;6861;46.170;7.222;2023-03-23T02:11:18;2.17;;;1.42;;
13580;SDS011;6861;46.170;7.222;2023-03-23T02:13:46;3.17;;;1.33;;
13580;SDS011;6861;46.170;7.222;2023-03-23T02:16:16;2.15;;;1.30;;
13580;SDS011;6861;46.170;7.222;2023-03-23T02:18:54;3.45;;;1.30;;
13580;SDS011;6861;46.170;7.222;2023-03-23T02:21:33;2.03;;;1.17;;
13580;SDS011;6861;46.170;7.222;2023-03-23T02:24:28;2.15;;;1.00;;
13580;SDS011;6861;46.170;7.222;2023-03-23T02:27:07;2.25;;;1.17;;
13580;SDS011;6861;46.170;7.222;2023-03-23T02:29:49;1.73;;;1.10;;
13580;SDS011;6861;46.170;7.222;2023-03-23T02:32:33;2.25;;;1.10;;
13580;SDS011;6861;46.170;7.222;2023-03-23T02:35:16;3.65;;;1.10;;
13580;SDS011;6861;46.170;7.222;2023-03-23T02:37:48;2.47;;;1.50;;
13580;SDS011;6861;46.170;7.222;2023-03-23T02:40:19;3.17;;;1.42;;
13580;SDS011;6861;46.170;7.222;2023-03-23T02:42:51;3.60;;;1.20;;
13580;SDS011;6861;46.170;7.222;2023-03-23T02:45:20;2.88;;;1.60;;
13580;SDS011;6861;46.170;7.222;2023-03-23T02:47:50;2.40;;;1.20;;
13580;SDS011;6861;46.170;7.222;2023-03-23T02:50:21;3.33;;;1.20;;
13580;SDS011;6861;46.170;7.222;2023-03-23T02:52:51;4.60;;;1.50;;
13580;SDS011;6861;46.170;7.222;2023-03-23T02:55:22;1.45;;;1.10;;
13580;SDS011;6861;46.170;7.222;2023-03-23T02:57:50;3.20;;;1.15;;
13580;SDS011;6861;46.170;7.222;2023-03-23T03:00:19;1.50;;;0.90;;
13580;SDS011;6861;46.170;7.222;2023-03-23T03:02:47;2.05;;;1.00;;
13580;SDS011;6861;46.170;7.222;2023-03-23T03:05:24;2.42;;;1.50;;
13580;SDS011;6861;46.170;7.222;2023-03-23T03:08:00;3.05;;;1.60;;
13580;SDS011;6861;46.170;7.222;2023-03-23T03:10:34;4.55;;;1.70;;
13580;SDS011;6861;46.170;7.222;2023-03-23T03:13:10;2.92;;;1.13;;
13580;SDS011;6861;46.170;7.222;2023-03-23T03:15:47;3.75;;;1.35;;
13580;SDS011;6861;46.170;7.222;2023-03-23T03:18:21;3.03;;;1.27;;
13580;SDS011;6861;46.170;7.222;2023-03-23T03:20:55;2.72;;;1.30;;
13580;SDS011;6861;46.170;7.222;2023-03-23T03:23:26;1.92;;;1.20;;
13580;SDS011;6861;46.170;7.222;2023-03-23T03:25:55;1.88;;;1.15;;
13580;SDS011;6861;46.170;7.222;2023-03-23T03:28:23;4.28;;;1.10;;
13580;SDS011;6861;46.170;7.222;2023-03-23T03:30:53;1.42;;;1.08;;
13580;SDS011;6861;46.170;7.222;2023-03-23T03:33:22;1.73;;;1.27;;
13580;SDS011;6861;46.170;7.222;2023-03-23T03:35:50;1.67;;;1.20;;
13580;SDS011;6861;46.170;7.222;2023-03-23T03:38:20;3.08;;;1.42;;
13580;SDS011;6861;46.170;7.222;2023-03-23T03:40:47;2.85;;;1.25;;
13580;SDS011;6861;46.170;7.222;2023-03-23T03:43:13;2.60;;;1.45;;
13580;SDS011;6861;46.170;7.222;2023-03-23T03:45:40;2.58;;;1.20;;
13580;SDS011;6861;46.170;7.222;2023-03-23T03:48:07;2.33;;;1.20;;
13580;SDS011;6861;46.170;7.222;2023-03-23T03:50:35;1.13;;;1.02;;
13580;SDS011;6861;46.170;7.222;2023-03-23T03:53:02;3.75;;;1.20;;
13580;SDS011;6861;46.170;7.222;2023-03-23T03:55:30;1.42;;;1.33;;
13580;SDS011;6861;46.170;7.222;2023-03-23T03:58:00;2.10;;;1.23;;
13580;SDS011;6861;46.170;7.222;2023-03-23T04:00:27;3.63;;;1.42;;
13580;SDS011;6861;46.170;7.222;2023-03-23T04:02:54;1.52;;;1.40;;
13580;SDS011;6861;46.170;7.222;2023-03-23T04:05:22;2.05;;;1.40;;
13580;SDS011;6861;46.170;7.222;2023-03-23T04:07:50;3.15;;;1.30;;
13580;SDS011;6861;46.170;7.222;2023-03-23T04:10:18;3.13;;;1.65;;
13580;SDS011;6861;46.170;7.222;2023-03-23T04:12:48;2.83;;;1.55;;
13580;SDS011;6861;46.170;7.222;2023-03-23T04:15:15;2.60;;;1.40;;
13580;SDS011;6861;46.170;7.222;2023-03-23T04:17:42;3.55;;;1.55;;
13580;SDS011;6861;46.170;7.222;2023-03-23T04:20:09;2.72;;;1.13;;
13580;SDS011;6861;46.170;7.222;2023-03-23T04:22:42;2.20;;;1.60;;
13580;SDS011;6861;46.170;7.222;2023-03-23T04:25:10;1.75;;;1.20;;
13580;SDS011;6861;46.170;7.222;2023-03-23T04:27:39;1.63;;;1.30;;
13580;SDS011;6861;46.170;7.222;2023-03-23T04:30:10;1.67;;;1.30;;
13580;SDS011;6861;46.170;7.222;2023-03-23T04:32:39;2.45;;;1.50;;
13580;SDS011;6861;46.170;7.222;2023-03-23T04:35:07;1.73;;;1.20;;
13580;SDS011;6861;46.170;7.222;2023-03-23T04:37:37;3.35;;;1.10;;
13580;SDS011;6861;46.170;7.222;2023-03-23T04:40:05;2.58;;;1.20;;
13580;SDS011;6861;46.170;7.222;2023-03-23T04:42:36;2.17;;;1.45;;
13580;SDS011;6861;46.170;7.222;2023-03-23T04:45:05;3.58;;;1.30;;
13580;SDS011;6861;46.170;7.222;2023-03-23T04:47:35;3.08;;;1.30;;
13580;SDS011;6861;46.170;7.222;2023-03-23T04:50:06;2.30;;;1.23;;
13580;SDS011;6861;46.170;7.222;2023-03-23T04:52:35;1.38;;;1.00;;
13580;SDS011;6861;46.170;7.222;2023-03-23T04:55:05;1.95;;;0.90;;
13580;SDS011;6861;46.170;7.222;2023-03-23T04:57:34;4.10;;;1.30;;
13580;SDS011;6861;46.170;7.222;2023-03-23T05:00:02;3.38;;;1.08;;
13580;SDS011;6861;46.170;7.222;2023-03-23T05:02:36;1.88;;;1.05;;
13580;SDS011;6861;46.170;7.222;2023-03-23T05:05:04;2.15;;;1.20;;
13580;SDS011;6861;46.170;7.222;2023-03-23T05:07:32;2.60;;;1.17;;
13580;SDS011;6861;46.170;7.222;2023-03-23T05:09:59;1.60;;;1.20;;
13580;SDS011;6861;46.170;7.222;2023-03-23T05:12:26;1.55;;;1.10;;
13580;SDS011;6861;46.170;7.222;2023-03-23T05:14:53;1.90;;;1.30;;
13580;SDS011;6861;46.170;7.222;2023-03-23T05:17:20;3.30;;;1.35;;
13580;SDS011;6861;46.170;7.222;2023-03-23T05:19:51;1.95;;;1.15;;
13580;SDS011;6861;46.170;7.222;2023-03-23T05:22:18;2.05;;;1.33;;
13580;SDS011;6861;46.170;7.222;2023-03-23T05:24:46;3.97;;;1.40;;
13580;SDS011;6861;46.170;7.222;2023-03-23T05:27:13;2.30;;;1.55;;
13580;SDS011;6861;46.170;7.222;2023-03-23T05:29:42;1.95;;;1.50;;
13580;SDS011;6861;46.170;7.222;2023-03-23T05:32:11;3.72;;;1.13;;
13580;SDS011;6861;46.170;7.222;2023-03-23T05:34:38;2.63;;;1.52;;
13580;SDS011;6861;46.170;7.222;2023-03-23T05:37:06;5.30;;;1.45;;
13580;SDS011;6861;46.170;7.222;2023-03-23T05:39:35;4.78;;;1.25;;
13580;SDS011;6861;46.170;7.222;2023-03-23T05:42:02;7.45;;;1.73;;
13580;SDS011;6861;46.170;7.222;2023-03-23T05:44:29;6.05;;;1.80;;
13580;SDS011;6861;46.170;7.222;2023-03-23T05:46:57;1.80;;;1.48;;
13580;SDS011;6861;46.170;7.222;2023-03-23T05:49:24;3.53;;;1.70;;
13580;SDS011;6861;46.170;7.222;2023-03-23T05:51:51;2.38;;;1.15;;
13580;SDS011;6861;46.170;7.222;2023-03-23T05:54:20;4.40;;;1.48;;
13580;SDS011;6861;46.170;7.222;2023-03-23T05:56:47;1.48;;;1.10;;
13580;SDS011;6861;46.170;7.222;2023-03-23T05:59:14;2.88;;;1.25;;
13580;SDS011;6861;46.170;7.222;2023-03-23T06:01:41;3.17;;;1.20;;
13580;SDS011;6861;46.170;7.222;2023-03-23T06:04:08;5.68;;;1.80;;
13580;SDS011;6861;46.170;7.222;2023-03-23T06:06:37;2.45;;;1.27;;
13580;SDS011;6861;46.170;7.222;2023-03-23T06:09:03;2.17;;;1.35;;
13580;SDS011;6861;46.170;7.222;2023-03-23T06:11:33;1.83;;;1.40;;
13580;SDS011;6861;46.170;7.222;2023-03-23T06:14:00;2.35;;;1.40;;
13580;SDS011;6861;46.170;7.222;2023-03-23T06:16:28;2.22;;;1.50;;
13580;SDS011;6861;46.170;7.222;2023-03-23T06:18:55;2.08;;;1.20;;
13580;SDS011;6861;46.170;7.222;2023-03-23T06:21:23;2.38;;;1.77;;
13580;SDS011;6861;46.170;7.222;2023-03-23T06:23:49;1.73;;;1.40;;
13580;SDS011;6861;46.170;7.222;2023-03-23T06:26:17;2.92;;;1.10;;
13580;SDS011;6861;46.170;7.222;2023-03-23T06:28:46;3.33;;;1.40;;
13580;SDS011;6861;46.170;7.222;2023-03-23T06:31:14;1.77;;;1.30;;
13580;SDS011;6861;46.170;7.222;2023-03-23T06:33:42;2.30;;;1.40;;
13580;SDS011;6861;46.170;7.222;2023-03-23T06:36:09;2.40;;;1.50;;
13580;SDS011;6861;46.170;7.222;2023-03-23T06:38:37;3.45;;;1.45;;
13580;SDS011;6861;46.170;7.222;2023-03-23T06:41:04;5.20;;;2.38;;
13580;SDS011;6861;46.170;7.222;2023-03-23T06:43:31;3.47;;;1.90;;
13580;SDS011;6861;46.170;7.222;2023-03-23T06:46:02;3.78;;;1.58;;
13580;SDS011;6861;46.170;7.222;2023-03-23T06:48:29;2.22;;;1.27;;
13580;SDS011;6861;46.170;7.222;2023-03-23T06:50:57;9.93;;;5.13;;
13580;SDS011;6861;46.170;7.222;2023-03-23T06:53:24;3.97;;;2.17;;
13580;SDS011;6861;46.170;7.222;2023-03-23T06:55:51;6.45;;;2.17;;
13580;SDS011;6861;46.170;7.222;2023-03-23T06:58:18;9.77;;;2.30;;
13580;SDS011;6861;46.170;7.222;2023-03-23T07:00:46;11.32;;;2.50;;
13580;SDS011;6861;46.170;7.222;2023-03-23T07:03:14;4.45;;;1.98;;
13580;SDS011;6861;46.170;7.222;2023-03-23T07:05:41;2.83;;;1.70;;
13580;SDS011;6861;46.170;7.222;2023-03-23T07:08:11;2.25;;;1.67;;
13580;SDS011;6861;46.170;7.222;2023-03-23T07:10:39;3.13;;;1.70;;
13580;SDS011;6861;46.170;7.222;2023-03-23T07:13:10;9.07;;;3.42;;
13580;SDS011;6861;46.170;7.222;2023-03-23T07:15:38;6.68;;;2.17;;
13580;SDS011;6861;46.170;7.222;2023-03-23T07:18:05;4.63;;;2.45;;
13580;SDS011;6861;46.170;7.222;2023-03-23T07:20:33;7.93;;;2.90;;
13580;SDS011;6861;46.170;7.222;2023-03-23T07:23:01;9.35;;;2.95;;
13580;SDS011;6861;46.170;7.222;2023-03-23T07:25:30;17.20;;;3.50;;
13580;SDS011;6861;46.170;7.222;2023-03-23T07:27:58;10.00;;;2.78;;
13580;SDS011;6861;46.170;7.222;2023-03-23T07:30:25;11.10;;;2.45;;
13580;SDS011;6861;46.170;7.222;2023-03-23T07:32:54;4.93;;;2.40;;
13580;SDS011;6861;46.170;7.222;2023-03-23T07:35:22;5.50;;;2.50;;
13580;SDS011;6861;46.170;7.222;2023-03-23T07:37:50;5.30;;;2.25;;
13580;SDS011;6861;46.170;7.222;2023-03-23T07:40:19;12.80;;;2.25;;
13580;SDS011;6861;46.170;7.222;2023-03-23T07:42:50;6.80;;;2.45;;
13580;SDS011;6861;46.170;7.222;2023-03-23T07:45:19;7.60;;;2.42;;
13580;SDS011;6861;46.170;7.222;2023-03-23T07:47:46;11.48;;;2.83;;
13580;SDS011;6861;46.170;7.222;2023-03-23T07:50:13;15.15;;;2.80;;
13580;SDS011;6861;46.170;7.222;2023-03-23T07:52:41;9.68;;;2.35;;
13580;SDS011;6861;46.170;7.222;2023-03-23T07:55:10;8.98;;;2.70;;
13580;SDS011;6861;46.170;7.222;2023-03-23T07:57:42;11.80;;;2.50;;
13580;SDS011;6861;46.170;7.222;2023-03-23T08:00:10;5.82;;;2.58;;
13580;SDS011;6861;46.170;7.222;2023-03-23T08:02:41;8.48;;;2.83;;
13580;SDS011;6861;46.170;7.222;2023-03-23T08:05:08;8.23;;;2.17;;
13580;SDS011;6861;46.170;7.222;2023-03-23T08:07:35;9.80;;;2.28;;
13580;SDS011;6861;46.170;7.222;2023-03-23T08:10:02;9.88;;;2.20;;
13580;SDS011;6861;46.170;7.222;2023-03-23T08:12:31;3.72;;;2.45;;
13580;SDS011;6861;46.170;7.222;2023-03-23T08:14:58;9.13;;;1.92;;
13580;SDS011;6861;46.170;7.222;2023-03-23T08:17:25;4.93;;;2.10;;
13580;SDS011;6861;46.170;7.222;2023-03-23T08:19:52;5.80;;;2.15;;
13580;SDS011;6861;46.170;7.222;2023-03-23T08:22:19;6.13;;;2.10;;
13580;SDS011;6861;46.170;7.222;2023-03-23T08:24:46;8.70;;;2.65;;
13580;SDS011;6861;46.170;7.222;2023-03-23T08:27:13;2.53;;;1.77;;
13580;SDS011;6861;46.170;7.222;2023-03-23T08:29:42;4.82;;;1.95;;
13580;SDS011;6861;46.170;7.222;2023-03-23T08:32:11;7.78;;;2.20;;
13580;SDS011;6861;46.170;7.222;2023-03-23T08:34:38;3.55;;;2.05;;
13580;SDS011;6861;46.170;7.222;2023-03-23T08:37:05;7.22;;;1.90;;
13580;SDS011;6861;46.170;7.222;2023-03-23T08:39:32;6.35;;;2.60;;
13580;SDS011;6861;46.170;7.222;2023-03-23T08:41:59;6.95;;;2.40;;
13580;SDS011;6861;46.170;7.222;2023-03-23T08:44:26;4.47;;;2.00;;
13580;SDS011;6861;46.170;7.222;2023-03-23T08:46:54;4.95;;;1.88;;
13580;SDS011;6861;46.170;7.222;2023-03-23T08:49:23;9.70;;;2.63;;
13580;SDS011;6861;46.170;7.222;2023-03-23T08:51:50;9.15;;;2.92;;
13580;SDS011;6861;46.170;7.222;2023-03-23T08:54:17;6.25;;;2.53;;
13580;SDS011;6861;46.170;7.222;2023-03-23T08:56:44;9.20;;;2.40;;
13580;SDS011;6861;46.170;7.222;2023-03-23T08:59:11;3.78;;;2.13;;
13580;SDS011;6861;46.170;7.222;2023-03-23T09:01:38;6.47;;;2.30;;
13580;SDS011;6861;46.170;7.222;2023-03-23T09:04:06;4.07;;;1.92;;
13580;SDS011;6861;46.170;7.222;2023-03-23T09:06:34;6.60;;;2.42;;
13580;SDS011;6861;46.170;7.222;2023-03-23T09:09:01;8.70;;;2.30;;
13580;SDS011;6861;46.170;7.222;2023-03-23T09:11:32;6.72;;;3.17;;
13580;SDS011;6861;46.170;7.222;2023-03-23T09:13:59;5.05;;;2.78;;
13580;SDS011;6861;46.170;7.222;2023-03-23T09:16:26;4.07;;;2.95;;
13580;SDS011;6861;46.170;7.222;2023-03-23T09:18:54;4.32;;;3.00;;
13580;SDS011;6861;46.170;7.222;2023-03-23T09:21:23;9.45;;;2.60;;
13580;SDS011;6861;46.170;7.222;2023-03-23T09:23:51;5.07;;;2.30;;
13580;SDS011;6861;46.170;7.222;2023-03-23T09:26:18;3.75;;;2.22;;
13580;SDS011;6861;46.170;7.222;2023-03-23T09:28:45;5.75;;;2.05;;
13580;SDS011;6861;46.170;7.222;2023-03-23T09:31:12;5.00;;;2.03;;
13580;SDS011;6861;46.170;7.222;2023-03-23T09:33:39;3.72;;;2.72;;
13580;SDS011;6861;46.170;7.222;2023-03-23T09:36:07;4.05;;;1.80;;
13580;SDS011;6861;46.170;7.222;2023-03-23T09:38:39;4.63;;;2.00;;
13580;SDS011;6861;46.170;7.222;2023-03-23T09:41:11;4.30;;;1.90;;
13580;SDS011;6861;46.170;7.222;2023-03-23T09:43:49;3.33;;;1.90;;
13580;SDS011;6861;46.170;7.222;2023-03-23T09:46:32;6.18;;;2.40;;
13580;SDS011;6861;46.170;7.222;2023-03-23T09:49:08;5.00;;;2.55;;
13580;SDS011;6861;46.170;7.222;2023-03-23T09:51:40;3.78;;;2.70;;
13580;SDS011;6861;46.170;7.222;2023-03-23T09:54:13;5.53;;;2.40;;
13580;SDS011;6861;46.170;7.222;2023-03-23T09:56:45;7.38;;;1.90;;
13580;SDS011;6861;46.170;7.222;2023-03-23T09:59:15;2.53;;;1.67;;
13580;SDS011;6861;46.170;7.222;2023-03-23T10:01:47;4.32;;;2.13;;
13580;SDS011;6861;46.170;7.222;2023-03-23T10:04:17;5.57;;;2.22;;
13580;SDS011;6861;46.170;7.222;2023-03-23T10:06:53;11.30;;;2.40;;
13580;SDS011;6861;46.170;7.222;2023-03-23T10:09:26;2.72;;;1.92;;
13580;SDS011;6861;46.170;7.222;2023-03-23T10:12:00;3.90;;;1.80;;
13580;SDS011;6861;46.170;7.222;2023-03-23T10:14:37;8.85;;;2.45;;
13580;SDS011;6861;46.170;7.222;2023-03-23T10:17:14;4.78;;;2.10;;
13580;SDS011;6861;46.170;7.222;2023-03-23T10:19:46;5.43;;;2.20;;
13580;SDS011;6861;46.170;7.222;2023-03-23T10:22:21;4.68;;;2.05;;
13580;SDS011;6861;46.170;7.222;2023-03-23T10:24:56;4.95;;;3.20;;
13580;SDS011;6861;46.170;7.222;2023-03-23T10:27:30;5.22;;;3.20;;
13580;SDS011;6861;46.170;7.222;2023-03-23T10:30:07;3.83;;;2.28;;
13580;SDS011;6861;46.170;7.222;2023-03-23T10:32:45;5.50;;;2.30;;
13580;SDS011;6861;46.170;7.222;2023-03-23T10:35:18;9.30;;;2.90;;
13580;SDS011;6861;46.170;7.222;2023-03-23T10:37:48;7.53;;;2.85;;
13580;SDS011;6861;46.170;7.222;2023-03-23T10:40:23;7.28;;;2.92;;
13580;SDS011;6861;46.170;7.222;2023-03-23T10:42:52;12.50;;;3.47;;
13580;SDS011;6861;46.170;7.222;2023-03-23T10:45:21;8.60;;;2.95;;
13580;SDS011;6861;46.170;7.222;2023-03-23T10:47:51;12.18;;;3.17;;
13580;SDS011;6861;46.170;7.222;2023-03-23T10:50:23;6.85;;;2.60;;
13580;SDS011;6861;46.170;7.222;2023-03-23T10:52:53;7.28;;;2.30;;
13580;SDS011;6861;46.170;7.222;2023-03-23T10:55:34;4.47;;;2.05;;
13580;SDS011;6861;46.170;7.222;2023-03-23T10:58:04;4.43;;;2.30;;
13580;SDS011;6861;46.170;7.222;2023-03-23T11:00:33;5.32;;;2.72;;
13580;SDS011;6861;46.170;7.222;2023-03-23T11:03:20;7.70;;;2.80;;
13580;SDS011;6861;46.170;7.222;2023-03-23T11:05:58;12.60;;;3.72;;
13580;SDS011;6861;46.170;7.222;2023-03-23T11:08:29;6.93;;;2.90;;
13580;SDS011;6861;46.170;7.222;2023-03-23T11:11:07;9.18;;;2.60;;
13580;SDS011;6861;46.170;7.222;2023-03-23T11:13:38;9.98;;;3.03;;
13580;SDS011;6861;46.170;7.222;2023-03-23T11:16:08;7.45;;;2.78;;
13580;SDS011;6861;46.170;7.222;2023-03-23T11:18:37;10.10;;;2.80;;
13580;SDS011;6861;46.170;7.222;2023-03-23T11:21:05;10.15;;;3.00;;
13580;SDS011;6861;46.170;7.222;2023-03-23T11:23:36;7.55;;;3.00;;
13580;SDS011;6861;46.170;7.222;2023-03-23T11:26:11;12.48;;;3.40;;
13580;SDS011;6861;46.170;7.222;2023-03-23T11:28:42;8.10;;;3.33;;
13580;SDS011;6861;46.170;7.222;2023-03-23T11:31:12;4.55;;;2.90;;
13580;SDS011;6861;46.170;7.222;2023-03-23T11:36:29;4.13;;;2.45;;
13580;SDS011;6861;46.170;7.222;2023-03-23T11:38:58;7.07;;;2.45;;
13580;SDS011;6861;46.170;7.222;2023-03-23T11:41:33;6.57;;;2.50;;
13580;SDS011;6861;46.170;7.222;2023-03-23T11:44:09;2.60;;;2.25;;
13580;SDS011;6861;46.170;7.222;2023-03-23T11:46:40;6.30;;;2.40;;
13580;SDS011;6861;46.170;7.222;2023-03-23T11:49:18;11.38;;;3.15;;
13580;SDS011;6861;46.170;7.222;2023-03-23T11:51:53;3.65;;;2.28;;
13580;SDS011;6861;46.170;7.222;2023-03-23T11:54:26;7.95;;;2.40;;
13580;SDS011;6861;46.170;7.222;2023-03-23T11:56:58;6.47;;;2.20;;
13580;SDS011;6861;46.170;7.222;2023-03-23T11:59:28;4.03;;;2.22;;
13580;SDS011;6861;46.170;7.222;2023-03-23T12:02:01;3.45;;;2.20;;
13580;SDS011;6861;46.170;7.222;2023-03-23T12:04:57;4.78;;;2.38;;
13580;SDS011;6861;46.170;7.222;2023-03-23T12:07:36;5.47;;;2.10;;
13580;SDS011;6861;46.170;7.222;2023-03-23T12:10:19;2.70;;;2.10;;
13580;SDS011;6861;46.170;7.222;2023-03-23T12:12:59;5.78;;;2.30;;
13580;SDS011;6861;46.170;7.222;2023-03-23T12:18:45;8.32;;;2.47;;
13580;SDS011;6861;46.170;7.222;2023-03-23T12:21:19;49.60;;;7.05;;
13580;SDS011;6861;46.170;7.222;2023-03-23T12:23:57;3.72;;;2.08;;
13580;SDS011;6861;46.170;7.222;2023-03-23T12:26:30;10.13;;;2.53;;
13580;SDS011;6861;46.170;7.222;2023-03-23T12:29:10;2.80;;;1.95;;
13580;SDS011;6861;46.170;7.222;2023-03-23T12:31:50;4.15;;;2.10;;
13580;SDS011;6861;46.170;7.222;2023-03-23T12:34:28;3.20;;;1.80;;
13580;SDS011;6861;46.170;7.222;2023-03-23T12:37:06;3.85;;;1.83;;
13580;SDS011;6861;46.170;7.222;2023-03-23T12:40:07;5.30;;;2.20;;
13580;SDS011;6861;46.170;7.222;2023-03-23T12:42:58;6.78;;;2.10;;
13580;SDS011;6861;46.170;7.222;2023-03-23T12:45:41;3.20;;;2.00;;
13580;SDS011;6861;46.170;7.222;2023-03-23T12:48:16;5.57;;;2.13;;
13580;SDS011;6861;46.170;7.222;2023-03-23T12:50:58;3.05;;;2.10;;
13580;SDS011;6861;46.170;7.222;2023-03-23T12:53:36;3.28;;;1.90;;
13580;SDS011;6861;46.170;7.222;2023-03-23T12:56:13;3.45;;;2.08;;
13580;SDS011;6861;46.170;7.222;2023-03-23T12:58:44;4.85;;;1.77;;
13580;SDS011;6861;46.170;7.222;2023-03-23T13:01:14;4.60;;;1.98;;
13580;SDS011;6861;46.170;7.222;2023-03-23T13:03:48;6.70;;;1.67;;
13580;SDS011;6861;46.170;7.222;2023-03-23T13:06:22;2.20;;;1.35;;
13580;SDS011;6861;46.170;7.222;2023-03-23T13:08:55;3.05;;;1.48;;
13580;SDS011;6861;46.170;7.222;2023-03-23T13:11:28;2.70;;;1.40;;
13580;SDS011;6861;46.170;7.222;2023-03-23T13:16:50;2.33;;;1.10;;
13580;SDS011;6861;46.170;7.222;2023-03-23T13:19:24;2.00;;;1.40;;
13580;SDS011;6861;46.170;7.222;2023-03-23T13:21:58;6.30;;;2.20;;
13580;SDS011;6861;46.170;7.222;2023-03-23T13:24:32;4.13;;;2.53;;
13580;SDS011;6861;46.170;7.222;2023-03-23T13:27:02;5.57;;;2.67;;
13580;SDS011;6861;46.170;7.222;2023-03-23T13:29:31;5.03;;;2.70;;
13580;SDS011;6861;46.170;7.222;2023-03-23T13:32:12;5.28;;;2.47;;
13580;SDS011;6861;46.170;7.222;2023-03-23T13:34:42;6.35;;;2.00;;
13580;SDS011;6861;46.170;7.222;2023-03-23T13:37:10;7.47;;;1.40;;
13580;SDS011;6861;46.170;7.222;2023-03-23T13:39:48;2.97;;;1.50;;
13580;SDS011;6861;46.170;7.222;2023-03-23T13:42:19;5.30;;;1.20;;
13580;SDS011;6861;46.170;7.222;2023-03-23T13:44:57;5.05;;;1.27;;
13580;SDS011;6861;46.170;7.222;2023-03-23T13:47:38;4.55;;;1.48;;
13580;SDS011;6861;46.170;7.222;2023-03-23T13:50:10;1.80;;;1.10;;
13580;SDS011;6861;46.170;7.222;2023-03-23T13:52:46;7.68;;;1.20;;
13580;SDS011;6861;46.170;7.222;2023-03-23T13:55:19;6.65;;;1.40;;
13580;SDS011;6861;46.170;7.222;2023-03-23T13:58:10;1.75;;;1.35;;
13580;SDS011;6861;46.170;7.222;2023-03-23T14:00:48;2.95;;;1.13;;
13580;SDS011;6861;46.170;7.222;2023-03-23T14:03:19;2.15;;;1.38;;
13580;SDS011;6861;46.170;7.222;2023-03-23T14:06:00;1.67;;;1.15;;
13580;SDS011;6861;46.170;7.222;2023-03-23T14:08:37;1.80;;;1.40;;
13580;SDS011;6861;46.170;7.222;2023-03-23T14:11:10;1.52;;;1.00;;
13580;SDS011;6861;46.170;7.222;2023-03-23T14:13:41;2.00;;;0.70;;
13580;SDS011;6861;46.170;7.222;2023-03-23T14:16:16;1.20;;;1.00;;
13580;SDS011;6861;46.170;7.222;2023-03-23T14:18:51;2.20;;;0.90;;
13580;SDS011;6861;46.170;7.222;2023-03-23T14:21:34;0.90;;;0.80;;
13580;SDS011;6861;46.170;7.222;2023-03-23T14:24:04;2.60;;;1.13;;
13580;SDS011;6861;46.170;7.222;2023-03-23T14:26:35;1.17;;;0.90;;
13580;SDS011;6861;46.170;7.222;2023-03-23T14:29:03;1.50;;;0.93;;
13580;SDS011;6861;46.170;7.222;2023-03-23T14:31:31;1.27;;;0.77;;
13580;SDS011;6861;46.170;7.222;2023-03-23T14:34:03;1.73;;;1.08;;
13580;SDS011;6861;46.170;7.222;2023-03-23T14:36:38;2.75;;;1.10;;
13580;SDS011;6861;46.170;7.222;2023-03-23T14:39:07;1.10;;;1.00;;
13580;SDS011;6861;46.170;7.222;2023-03-23T14:41:41;1.33;;;1.00;;
13580;SDS011;6861;46.170;7.222;2023-03-23T14:44:14;2.80;;;0.90;;
13580;SDS011;6861;46.170;7.222;2023-03-23T14:46:43;1.50;;;0.93;;
13580;SDS011;6861;46.170;7.222;2023-03-23T14:49:14;1.85;;;0.85;;
13580;SDS011;6861;46.170;7.222;2023-03-23T14:51:47;1.75;;;0.90;;
13580;SDS011;6861;46.170;7.222;2023-03-23T14:54:15;2.10;;;1.02;;
13580;SDS011;6861;46.170;7.222;2023-03-23T14:56:42;2.03;;;0.85;;
13580;SDS011;6861;46.170;7.222;2023-03-23T14:59:09;1.98;;;1.00;;
13580;SDS011;6861;46.170;7.222;2023-03-23T15:01:37;2.08;;;0.82;;
13580;SDS011;6861;46.170;7.222;2023-03-23T15:04:09;0.80;;;0.80;;
13580;SDS011;6861;46.170;7.222;2023-03-23T15:06:40;1.77;;;0.88;;
13580;SDS011;6861;46.170;7.222;2023-03-23T15:09:10;2.25;;;0.82;;
13580;SDS011;6861;46.170;7.222;2023-03-23T15:11:39;1.40;;;1.10;;
13580;SDS011;6861;46.170;7.222;2023-03-23T15:14:08;2.15;;;0.90;;
13580;SDS011;6861;46.170;7.222;2023-03-23T15:16:44;1.88;;;0.75;;
13580;SDS011;6861;46.170;7.222;2023-03-23T15:19:13;1.30;;;1.02;;
13580;SDS011;6861;46.170;7.222;2023-03-23T15:21:49;0.90;;;0.90;;
13580;SDS011;6861;46.170;7.222;2023-03-23T15:24:20;1.92;;;0.80;;
13580;SDS011;6861;46.170;7.222;2023-03-23T15:26:51;1.13;;;0.90;;
13580;SDS011;6861;46.170;7.222;2023-03-23T15:29:19;2.90;;;1.05;;
13580;SDS011;6861;46.170;7.222;2023-03-23T15:31:49;4.72;;;1.10;;